createdAt,value
2017-06-22T00:00:14.891Z,21.32
2017-06-22T00:01:16.244Z,21.36
2017-06-22T00:02:17.488Z,21.3
2017-06-22T00:03:18.766Z,21.35
2017-06-22T00:04:20.015Z,21.34
2017-06-22T00:05:21.272Z,21.34
2017-06-22T00:06:22.589Z,21.26
2017-06-22T00:07:23.968Z,21.3
2017-06-22T00:08:25.211Z,21.26
2017-06-22T00:09:26.458Z,21.27
2017-06-22T00:10:27.805Z,21.23
2017-06-22T00:11:29.088Z,21.24
2017-06-22T00:12:30.353Z,21.19
2017-06-22T00:13:31.624Z,21.14
2017-06-22T00:14:32.875Z,21.14
2017-06-22T00:15:34.115Z,21.16
2017-06-22T00:16:35.356Z,21.17
2017-06-22T00:17:36.634Z,21.19
2017-06-22T00:18:37.904Z,21.08
2017-06-22T00:19:39.135Z,21.13
2017-06-22T00:20:40.375Z,21.13
2017-06-22T00:21:41.687Z,21.09
2017-06-22T00:22:42.935Z,21.06
2017-06-22T00:23:44.183Z,21.17
2017-06-22T00:24:45.531Z,21.09
2017-06-22T00:25:46.771Z,21.02
2017-06-22T00:26:48.020Z,21.08
2017-06-22T00:27:49.263Z,20.91
2017-06-22T00:28:50.516Z,21.06
2017-06-22T00:29:51.997Z,20.98
2017-06-22T00:30:53.266Z,20.96
2017-06-22T00:31:54.515Z,20.99
2017-06-22T00:32:55.754Z,21.02
2017-06-22T00:33:57.005Z,21.01
2017-06-22T00:34:58.262Z,20.87
2017-06-22T00:35:59.537Z,20.8
2017-06-22T00:37:00.796Z,20.81
2017-06-22T00:38:02.093Z,20.74
2017-06-22T00:39:03.332Z,20.74
2017-06-22T00:40:04.584Z,20.77
2017-06-22T00:41:05.880Z,20.64
2017-06-22T00:42:07.137Z,20.62
2017-06-22T00:43:08.402Z,20.65
2017-06-22T00:44:09.695Z,20.47
2017-06-22T00:45:10.944Z,20.61
2017-06-22T00:46:12.193Z,20.59
2017-06-22T00:47:13.444Z,20.54
2017-06-22T00:48:14.705Z,20.53
2017-06-22T00:49:16.046Z,20.43
2017-06-22T00:50:17.356Z,20.49
2017-06-22T00:51:18.533Z,20.39
2017-06-22T00:52:19.837Z,20.33
2017-06-22T00:53:21.100Z,20.28
2017-06-22T00:54:22.346Z,20.31
2017-06-22T00:55:23.617Z,20.25
2017-06-22T00:56:24.863Z,20.23
2017-06-22T00:57:26.138Z,20.21
2017-06-22T00:58:27.396Z,20.1
2017-06-22T00:59:28.637Z,20.09
2017-06-22T01:00:29.967Z,20.1
2017-06-22T01:01:31.211Z,20.03
2017-06-22T01:02:32.494Z,20.05
2017-06-22T01:03:33.727Z,19.98
2017-06-22T01:04:35.008Z,20
2017-06-22T01:05:36.242Z,20
2017-06-22T01:06:37.547Z,19.95
2017-06-22T01:07:38.793Z,19.83
2017-06-22T01:08:40.058Z,19.88
2017-06-22T01:09:41.303Z,19.87
2017-06-22T01:10:42.550Z,19.8
2017-06-22T01:11:43.926Z,19.78
2017-06-22T01:12:45.166Z,19.73
2017-06-22T01:13:46.467Z,19.68
2017-06-22T01:14:47.694Z,19.6
2017-06-22T01:15:49.007Z,19.58
2017-06-22T01:16:50.184Z,19.53
2017-06-22T01:17:51.435Z,19.53
2017-06-22T01:18:52.683Z,19.48
2017-06-22T01:19:53.935Z,19.58
2017-06-22T01:20:55.184Z,19.5
2017-06-22T01:21:56.433Z,19.47
2017-06-22T01:22:57.682Z,19.4
2017-06-22T01:23:58.947Z,19.48
2017-06-22T01:25:00.213Z,19.4
2017-06-22T01:26:01.519Z,19.35
2017-06-22T01:27:02.764Z,19.35
2017-06-22T01:28:04.030Z,19.35
2017-06-22T01:29:05.250Z,19.23
2017-06-22T01:30:06.495Z,19.21
2017-06-22T01:31:07.854Z,19.31
2017-06-22T01:32:09.105Z,19.21
2017-06-22T01:33:10.364Z,19.23
2017-06-22T01:34:11.623Z,19.17
2017-06-22T01:35:12.872Z,19.1
2017-06-22T01:36:14.203Z,19.1
2017-06-22T01:37:15.540Z,19.02
2017-06-22T01:38:16.815Z,18.98
2017-06-22T01:39:18.098Z,19.02
2017-06-22T01:40:19.357Z,18.97
2017-06-22T01:41:20.595Z,19.01
2017-06-22T01:42:21.900Z,18.99
2017-06-22T01:43:23.157Z,19.01
2017-06-22T01:44:24.449Z,19.08
2017-06-22T01:45:25.679Z,18.98
2017-06-22T01:46:27.110Z,19.02
2017-06-22T01:47:28.269Z,18.99
2017-06-22T01:48:29.525Z,18.99
2017-06-22T01:49:30.804Z,19.01
2017-06-22T01:50:32.038Z,19.01
2017-06-22T01:51:33.279Z,18.99
2017-06-22T01:52:34.574Z,19.01
2017-06-22T01:53:35.841Z,19.05
2017-06-22T01:54:37.082Z,19.01
2017-06-22T01:55:38.455Z,19.01
2017-06-22T01:56:39.716Z,19.01
2017-06-22T01:57:40.955Z,19.02
2017-06-22T01:58:42.202Z,19.01
2017-06-22T01:59:43.449Z,19.1
2017-06-22T02:00:44.700Z,19.1
2017-06-22T02:01:45.965Z,18.98
2017-06-22T02:02:47.268Z,19.06
2017-06-22T02:03:48.581Z,18.98
2017-06-22T02:04:49.836Z,18.99
2017-06-22T02:05:51.105Z,19.06
2017-06-22T02:06:52.540Z,18.98
2017-06-22T02:07:53.765Z,19.02
2017-06-22T02:08:55.010Z,18.87
2017-06-22T02:09:56.301Z,18.84
2017-06-22T02:10:57.548Z,18.79
2017-06-22T02:11:58.790Z,18.84
2017-06-22T02:13:00.052Z,18.76
2017-06-22T02:14:01.345Z,18.79
2017-06-22T02:15:02.719Z,18.72
2017-06-22T02:16:03.968Z,18.65
2017-06-22T02:17:05.226Z,18.64
2017-06-22T02:18:06.471Z,18.68
2017-06-22T02:19:07.731Z,18.64
2017-06-22T02:20:08.981Z,18.67
2017-06-22T02:21:10.228Z,18.68
2017-06-22T02:22:11.531Z,18.67
2017-06-22T02:23:12.746Z,18.7
2017-06-22T02:24:14.044Z,18.65
2017-06-22T02:25:15.313Z,18.58
2017-06-22T02:26:16.534Z,18.59
2017-06-22T02:27:17.921Z,18.65
2017-06-22T02:28:19.054Z,18.64
2017-06-22T02:29:20.361Z,18.67
2017-06-22T02:30:21.593Z,18.59
2017-06-22T02:31:22.838Z,18.61
2017-06-22T02:32:24.086Z,18.59
2017-06-22T02:33:25.417Z,18.55
2017-06-22T02:34:26.688Z,18.61
2017-06-22T02:35:27.948Z,18.62
2017-06-22T02:36:29.196Z,18.61
2017-06-22T02:37:30.440Z,18.58
2017-06-22T02:38:31.710Z,18.61
2017-06-22T02:39:32.961Z,18.44
2017-06-22T02:40:34.238Z,18.54
2017-06-22T02:41:35.605Z,18.52
2017-06-22T02:42:36.805Z,18.5
2017-06-22T02:43:38.069Z,18.46
2017-06-22T02:44:39.325Z,18.44
2017-06-22T02:45:40.711Z,18.57
2017-06-22T02:46:41.952Z,18.49
2017-06-22T02:47:43.222Z,18.52
2017-06-22T02:48:44.462Z,18.49
2017-06-22T02:49:45.866Z,18.55
2017-06-22T02:50:47.103Z,18.55
2017-06-22T02:51:48.484Z,18.61
2017-06-22T02:52:49.696Z,18.65
2017-06-22T02:53:50.980Z,18.64
2017-06-22T02:54:52.196Z,18.65
2017-06-22T02:55:53.435Z,18.61
2017-06-22T02:56:54.684Z,18.59
2017-06-22T02:57:55.998Z,18.58
2017-06-22T02:58:57.256Z,18.67
2017-06-22T02:59:58.525Z,18.7
2017-06-22T03:00:59.768Z,18.68
2017-06-22T03:02:01.014Z,18.65
2017-06-22T03:03:02.301Z,18.72
2017-06-22T03:04:03.554Z,18.62
2017-06-22T03:05:04.923Z,18.68
2017-06-22T03:06:06.178Z,18.72
2017-06-22T03:07:07.399Z,18.64
2017-06-22T03:08:08.654Z,18.72
2017-06-22T03:09:09.946Z,18.67
2017-06-22T03:10:11.377Z,18.73
2017-06-22T03:11:12.647Z,18.67
2017-06-22T03:12:13.864Z,18.68
2017-06-22T03:13:15.115Z,18.72
2017-06-22T03:14:16.410Z,18.62
2017-06-22T03:15:17.649Z,18.77
2017-06-22T03:16:18.908Z,18.76
2017-06-22T03:17:20.199Z,18.74
2017-06-22T03:18:21.458Z,18.77
2017-06-22T03:19:22.722Z,18.87
2017-06-22T03:20:23.968Z,18.83
2017-06-22T03:21:25.221Z,18.92
2017-06-22T03:22:26.505Z,18.91
2017-06-22T03:23:27.741Z,18.91
2017-06-22T03:24:29.030Z,18.94
2017-06-22T03:25:30.254Z,18.98
2017-06-22T03:26:31.525Z,19.06
2017-06-22T03:27:32.775Z,19.13
2017-06-22T03:28:34.111Z,19.02
2017-06-22T03:29:35.369Z,19.1
2017-06-22T03:30:36.631Z,19.1
2017-06-22T03:31:37.857Z,19.14
2017-06-22T03:32:39.093Z,19.24
2017-06-22T03:33:40.352Z,19.29
2017-06-22T03:34:41.599Z,19.36
2017-06-22T03:35:42.971Z,19.36
2017-06-22T03:36:44.208Z,19.36
2017-06-22T03:37:45.470Z,19.36
2017-06-22T03:38:46.700Z,19.51
2017-06-22T03:39:48.067Z,19.53
2017-06-22T03:40:49.346Z,19.54
2017-06-22T03:41:50.585Z,19.54
2017-06-22T03:42:51.837Z,19.57
2017-06-22T03:43:53.101Z,19.53
2017-06-22T03:44:54.341Z,19.6
2017-06-22T03:45:55.726Z,19.58
2017-06-22T03:46:57.095Z,19.68
2017-06-22T03:47:58.392Z,19.61
2017-06-22T03:48:59.642Z,19.73
2017-06-22T03:50:00.887Z,19.76
2017-06-22T03:51:02.136Z,19.75
2017-06-22T03:52:03.376Z,19.79
2017-06-22T03:53:04.656Z,19.87
2017-06-22T03:54:05.871Z,19.94
2017-06-22T03:55:07.257Z,20.02
2017-06-22T03:56:08.506Z,20.02
2017-06-22T03:57:09.985Z,20.02
2017-06-22T03:58:11.236Z,20.08
2017-06-22T03:59:12.515Z,20.16
2017-06-22T04:00:13.812Z,20.1
2017-06-22T04:01:15.061Z,20.2
2017-06-22T04:02:16.308Z,20.3
2017-06-22T04:03:17.566Z,20.31
2017-06-22T04:04:18.845Z,20.46
2017-06-22T04:05:20.093Z,20.54
2017-06-22T04:06:21.372Z,20.47
2017-06-22T04:07:22.618Z,20.65
2017-06-22T04:08:23.839Z,20.61
2017-06-22T04:09:25.096Z,20.71
2017-06-22T04:10:26.415Z,20.77
2017-06-22T04:11:27.705Z,20.68
2017-06-22T04:12:28.963Z,20.74
2017-06-22T04:13:30.235Z,20.81
2017-06-22T04:14:31.482Z,20.84
2017-06-22T04:15:32.722Z,20.89
2017-06-22T04:16:34.008Z,20.83
2017-06-22T04:17:35.241Z,20.98
2017-06-22T04:18:36.499Z,20.91
2017-06-22T04:19:37.743Z,20.91
2017-06-22T04:20:39.009Z,20.93
2017-06-22T04:21:40.261Z,20.93
2017-06-22T04:22:41.559Z,20.9
2017-06-22T04:23:42.861Z,20.9
2017-06-22T04:24:44.109Z,20.98
2017-06-22T04:25:45.371Z,21.09
2017-06-22T04:26:46.639Z,21.13
2017-06-22T04:27:47.898Z,21.24
2017-06-22T04:28:49.147Z,21.32
2017-06-22T04:29:50.398Z,21.32
2017-06-22T04:30:51.732Z,21.35
2017-06-22T04:31:52.964Z,21.27
2017-06-22T04:32:54.217Z,21.23
2017-06-22T04:33:55.466Z,21.38
2017-06-22T04:34:56.746Z,21.29
2017-06-22T04:35:58.040Z,21.42
2017-06-22T04:36:59.294Z,21.53
2017-06-22T04:38:00.540Z,21.74
2017-06-22T04:39:01.799Z,21.9
2017-06-22T04:40:03.050Z,21.99
2017-06-22T04:41:04.305Z,22.13
2017-06-22T04:42:05.583Z,22.25
2017-06-22T04:43:06.820Z,22.31
2017-06-22T04:44:08.107Z,22.47
2017-06-22T04:45:09.380Z,22.56
2017-06-22T04:46:10.633Z,22.5
2017-06-22T04:47:11.867Z,22.49
2017-06-22T04:48:13.145Z,22.46
2017-06-22T04:49:14.458Z,22.54
2017-06-22T04:50:15.704Z,22.56
2017-06-22T04:51:16.949Z,22.49
2017-06-22T04:52:18.345Z,22.47
2017-06-22T04:53:19.644Z,22.62
2017-06-22T04:54:20.917Z,22.68
2017-06-22T04:55:22.178Z,22.74
2017-06-22T04:56:23.464Z,22.82
2017-06-22T04:57:24.740Z,23.04
2017-06-22T04:58:25.969Z,23.14
2017-06-22T04:59:27.222Z,23.45
2017-06-22T05:00:28.603Z,23.64
2017-06-22T05:01:29.850Z,23.9
2017-06-22T05:02:31.118Z,24.24
2017-06-22T05:03:32.378Z,24.39
2017-06-22T05:04:33.622Z,24.53
2017-06-22T05:05:34.898Z,24.75
2017-06-22T05:06:36.131Z,24.94
2017-06-22T05:07:37.402Z,24.82
2017-06-22T05:08:38.643Z,24.85
2017-06-22T05:09:39.913Z,24.64
2017-06-22T05:10:41.167Z,24.67
2017-06-22T05:11:42.428Z,24.73
2017-06-22T05:12:43.728Z,24.68
2017-06-22T05:13:44.998Z,24.6
2017-06-22T05:14:46.289Z,24.61
2017-06-22T05:15:47.542Z,24.44
2017-06-22T05:16:48.816Z,24.47
2017-06-22T05:17:50.061Z,24.37
2017-06-22T05:18:51.301Z,24.47
2017-06-22T05:19:52.616Z,24.59
2017-06-22T05:20:53.961Z,24.59
2017-06-22T05:21:55.179Z,24.71
2017-06-22T05:22:56.497Z,24.92
2017-06-22T05:23:57.749Z,25.3
2017-06-22T05:24:59.012Z,25.72
2017-06-22T05:26:00.275Z,25.9
2017-06-22T05:27:01.515Z,26.21
2017-06-22T05:28:02.771Z,26.73
2017-06-22T05:29:04.072Z,27.02
2017-06-22T05:30:05.323Z,27.47
2017-06-22T05:31:06.671Z,28.07
2017-06-22T05:32:07.917Z,28.59
2017-06-22T05:33:09.172Z,28.97
2017-06-22T05:34:10.536Z,29.31
2017-06-22T05:35:11.772Z,29.82
2017-06-22T05:36:13.047Z,30.33
2017-06-22T05:37:14.380Z,30.76
2017-06-22T05:38:15.635Z,31.21
2017-06-22T05:39:16.882Z,31.67
2017-06-22T05:40:18.139Z,31.64
2017-06-22T05:41:19.390Z,31.92
2017-06-22T05:42:20.705Z,31.99
2017-06-22T05:43:21.976Z,32
2017-06-22T05:44:23.239Z,32.06
2017-06-22T05:45:24.498Z,32.48
2017-06-22T05:46:25.770Z,32.39
2017-06-22T05:47:27.010Z,32.54
2017-06-22T05:48:28.271Z,32.59
2017-06-22T05:49:29.538Z,32.88
2017-06-22T05:50:30.867Z,33.08
2017-06-22T05:51:32.175Z,33.49
2017-06-22T05:52:33.446Z,33.82
2017-06-22T05:53:34.678Z,34.34
2017-06-22T05:54:35.934Z,34.58
2017-06-22T05:55:37.192Z,34.63
2017-06-22T05:56:38.443Z,34.58
2017-06-22T05:57:39.703Z,34.56
2017-06-22T05:58:40.957Z,35.1
2017-06-22T05:59:42.333Z,35.32
2017-06-22T06:00:43.571Z,35.76
2017-06-22T06:01:44.838Z,36.12
2017-06-22T06:02:46.092Z,36.31
2017-06-22T06:03:47.402Z,36.24
2017-06-22T06:04:48.654Z,36.68
2017-06-22T06:05:49.909Z,36.6
2017-06-22T06:06:51.188Z,36.73
2017-06-22T06:07:52.439Z,36.85
2017-06-22T06:08:53.733Z,36.99
2017-06-22T06:09:54.978Z,37.26
2017-06-22T06:10:56.243Z,37.58
2017-06-22T06:11:57.491Z,37.7
2017-06-22T06:12:58.812Z,37.67
2017-06-22T06:14:00.082Z,37.81
2017-06-22T06:15:01.336Z,38.23
2017-06-22T06:16:02.601Z,38.67
2017-06-22T06:17:03.857Z,38.9
2017-06-22T06:18:05.123Z,38.82
2017-06-22T06:19:06.398Z,39.08
2017-06-22T06:20:07.746Z,39.17
2017-06-22T06:21:08.974Z,39.44
2017-06-22T06:22:10.235Z,39.4
2017-06-22T06:23:11.506Z,39.49
2017-06-22T06:24:12.757Z,39.27
2017-06-22T06:25:14.017Z,39.3
2017-06-22T06:26:15.286Z,39.28
2017-06-22T06:27:16.552Z,39.43
2017-06-22T06:28:17.810Z,39.65
2017-06-22T06:29:19.086Z,39.78
2017-06-22T06:30:20.575Z,39.61
2017-06-22T06:31:21.804Z,39.84
2017-06-22T06:32:23.072Z,40.08
2017-06-22T06:33:24.330Z,40.3
2017-06-22T06:34:25.584Z,40.19
2017-06-22T06:35:26.835Z,40.33
2017-06-22T06:36:28.098Z,40.53
2017-06-22T06:37:29.351Z,40.61
2017-06-22T06:38:30.700Z,40.9
2017-06-22T06:39:32.125Z,40.79
2017-06-22T06:40:33.414Z,41.08
2017-06-22T06:41:34.659Z,41.29
2017-06-22T06:42:35.912Z,41.56
2017-06-22T06:43:37.197Z,41.43
2017-06-22T06:44:38.477Z,41.63
2017-06-22T06:45:39.733Z,41.43
2017-06-22T06:46:41.002Z,41.4
2017-06-22T06:47:42.346Z,41.41
2017-06-22T06:48:43.622Z,41.52
2017-06-22T06:49:44.869Z,41.96
2017-06-22T06:50:46.257Z,41.77
2017-06-22T06:51:47.517Z,41.81
2017-06-22T06:52:48.779Z,41.62
2017-06-22T06:53:50.085Z,41.74
2017-06-22T06:54:51.357Z,41.61
2017-06-22T06:55:52.654Z,41.86
2017-06-22T06:56:53.921Z,42
2017-06-22T06:57:55.197Z,42.16
2017-06-22T06:58:56.439Z,41.55
2017-06-22T06:59:57.712Z,41.82
2017-06-22T07:00:59.009Z,42.1
2017-06-22T07:02:00.297Z,41.96
2017-06-22T07:03:01.562Z,41.82
2017-06-22T07:04:02.840Z,41.78
2017-06-22T07:05:04.083Z,41.66
2017-06-22T07:06:05.368Z,41.88
2017-06-22T07:07:06.610Z,42.13
2017-06-22T07:08:07.982Z,42.27
2017-06-22T07:09:09.251Z,42.22
2017-06-22T07:10:10.527Z,42.27
2017-06-22T07:11:11.804Z,42.5
2017-06-22T07:12:13.048Z,42.27
2017-06-22T07:13:14.374Z,42.22
2017-06-22T07:14:15.670Z,42.62
2017-06-22T07:15:16.920Z,43.18
2017-06-22T07:16:18.200Z,43.3
2017-06-22T07:17:19.457Z,43.22
2017-06-22T07:18:20.728Z,43.1
2017-06-22T07:19:22.025Z,43.07
2017-06-22T07:20:23.368Z,42.63
2017-06-22T07:21:24.604Z,42.79
2017-06-22T07:22:25.852Z,43
2017-06-22T07:23:27.115Z,42.84
2017-06-22T07:24:28.532Z,42.83
2017-06-22T07:25:29.801Z,42.84
2017-06-22T07:26:31.050Z,42.84
2017-06-22T07:27:32.355Z,43.14
2017-06-22T07:28:33.616Z,43.06
2017-06-22T07:29:34.879Z,43.04
2017-06-22T07:30:36.148Z,42.97
2017-06-22T07:31:37.412Z,43.25
2017-06-22T07:32:38.686Z,43.45
2017-06-22T07:33:39.960Z,44.01
2017-06-22T07:34:41.224Z,44.54
2017-06-22T07:35:42.552Z,44.92
2017-06-22T07:36:43.817Z,45.27
2017-06-22T07:37:45.176Z,45.45
2017-06-22T07:38:46.446Z,45.56
2017-06-22T07:39:47.701Z,45.72
2017-06-22T07:40:48.960Z,45.34
2017-06-22T07:41:50.251Z,45.05
2017-06-22T07:42:51.524Z,44.58
2017-06-22T07:43:52.866Z,43.97
2017-06-22T07:44:54.160Z,43.89
2017-06-22T07:45:55.396Z,43.63
2017-06-22T07:46:56.663Z,42.76
2017-06-22T07:47:57.946Z,42.44
2017-06-22T07:48:59.210Z,42.16
2017-06-22T07:50:00.543Z,41.63
2017-06-22T07:51:01.833Z,41.29
2017-06-22T07:52:03.098Z,41.09
2017-06-22T07:53:04.358Z,41.4
2017-06-22T07:54:05.694Z,41.41
2017-06-22T07:55:06.935Z,41.5
2017-06-22T07:56:08.283Z,41.71
2017-06-22T07:57:09.544Z,41.97
2017-06-22T07:58:10.843Z,42.57
2017-06-22T07:59:12.083Z,42.81
2017-06-22T08:00:13.355Z,43.23
2017-06-22T08:01:14.675Z,43.27
2017-06-22T08:02:15.944Z,43.44
2017-06-22T08:03:17.215Z,44.01
2017-06-22T08:04:18.472Z,44.35
2017-06-22T08:05:19.735Z,44.32
2017-06-22T08:06:21.085Z,44.48
2017-06-22T08:07:22.360Z,44.35
2017-06-22T08:08:23.642Z,44.39
2017-06-22T08:09:24.921Z,44.2
2017-06-22T08:10:26.246Z,44.39
2017-06-22T08:11:27.517Z,44.89
2017-06-22T08:12:28.787Z,44.65
2017-06-22T08:13:30.048Z,44.13
2017-06-22T08:14:31.428Z,43.25
2017-06-22T08:15:32.881Z,42.58
2017-06-22T08:16:34.180Z,41.63
2017-06-22T08:17:35.458Z,41.03
2017-06-22T08:18:36.778Z,40.69
2017-06-22T08:19:38.006Z,40.5
2017-06-22T08:20:39.278Z,40.74
2017-06-22T08:21:40.546Z,41.21
2017-06-22T08:22:41.810Z,41.82
2017-06-22T08:23:43.080Z,42.56
2017-06-22T08:24:44.376Z,43.3
2017-06-22T08:25:45.631Z,43.98
2017-06-22T08:26:46.918Z,44.13
2017-06-22T08:27:48.210Z,44.42
2017-06-22T08:28:49.475Z,45.25
2017-06-22T08:29:50.740Z,45.9
2017-06-22T08:30:52.004Z,46.05
2017-06-22T08:31:53.390Z,46.85
2017-06-22T08:32:54.526Z,47.49
2017-06-22T08:33:55.791Z,47.58
2017-06-22T08:34:57.078Z,47.59
2017-06-22T08:35:58.374Z,48.06
2017-06-22T08:36:59.633Z,47.9
2017-06-22T08:38:00.884Z,47.72
2017-06-22T08:39:02.158Z,47.36
2017-06-22T08:40:03.411Z,47.62
2017-06-22T08:41:04.704Z,47.5
2017-06-22T08:42:05.994Z,47.89
2017-06-22T08:43:07.269Z,48.31
2017-06-22T08:44:08.507Z,48.47
2017-06-22T08:45:09.757Z,48.13
2017-06-22T08:46:11.020Z,47.7
2017-06-22T08:47:12.277Z,47.7
2017-06-22T08:48:13.643Z,47.74
2017-06-22T08:49:14.913Z,48.18
2017-06-22T08:50:16.175Z,48.39
2017-06-22T08:51:17.440Z,48.49
2017-06-22T08:52:18.739Z,48.66
2017-06-22T08:53:20.047Z,49.26
2017-06-22T08:54:21.339Z,49.05
2017-06-22T08:55:22.587Z,49.44
2017-06-22T08:56:23.852Z,49.67
2017-06-22T08:57:25.113Z,49.82
2017-06-22T08:58:26.414Z,49.57
2017-06-22T08:59:27.661Z,49.57
2017-06-22T09:00:28.920Z,49.39
2017-06-22T09:01:30.249Z,49.13
2017-06-22T09:02:31.600Z,48.5
2017-06-22T09:03:32.898Z,48.71
2017-06-22T09:04:34.176Z,49.13
2017-06-22T09:05:35.457Z,49.59
2017-06-22T09:06:36.764Z,49.73
2017-06-22T09:07:38.038Z,49.55
2017-06-22T09:08:39.381Z,48.94
2017-06-22T09:09:40.630Z,48.81
2017-06-22T09:10:41.896Z,48.84
2017-06-22T09:11:43.184Z,48.66
2017-06-22T09:12:44.487Z,48.82
2017-06-22T09:13:45.797Z,49.09
2017-06-22T09:14:47.062Z,49.48
2017-06-22T09:15:48.407Z,49.59
2017-06-22T09:16:49.673Z,50.11
2017-06-22T09:17:50.939Z,50.68
2017-06-22T09:18:52.210Z,50.92
2017-06-22T09:19:53.495Z,51.16
2017-06-22T09:20:54.748Z,51.19
2017-06-22T09:21:56.033Z,51.2
2017-06-22T09:22:57.304Z,51.09
2017-06-22T09:23:58.595Z,51.04
2017-06-22T09:24:59.981Z,51.15
2017-06-22T09:26:01.234Z,51.28
2017-06-22T09:27:02.527Z,51.12
2017-06-22T09:28:03.822Z,50.82
2017-06-22T09:29:05.121Z,50.49
2017-06-22T09:30:06.375Z,50.1
2017-06-22T09:31:07.756Z,49.92
2017-06-22T09:32:09.030Z,49.57
2017-06-22T09:33:10.301Z,49.85
2017-06-22T09:34:11.560Z,50.11
2017-06-22T09:35:12.829Z,49.73
2017-06-22T09:36:14.140Z,49.48
2017-06-22T09:37:15.453Z,48.85
2017-06-22T09:38:16.710Z,48.63
2017-06-22T09:39:17.986Z,48.36
2017-06-22T09:40:19.256Z,48.1
2017-06-22T09:41:20.520Z,48.4
2017-06-22T09:42:21.798Z,48.52
2017-06-22T09:43:23.065Z,48.25
2017-06-22T09:44:24.342Z,47.62
2017-06-22T09:45:25.600Z,46.91
2017-06-22T09:46:26.914Z,46.35
2017-06-22T09:47:28.173Z,46.1
2017-06-22T09:48:29.448Z,45.9
2017-06-22T09:49:30.703Z,45.72
2017-06-22T09:50:31.998Z,45.71
2017-06-22T09:51:33.291Z,45.85
2017-06-22T09:52:34.562Z,45.95
2017-06-22T09:53:35.937Z,46.34
2017-06-22T09:54:37.242Z,46.58
2017-06-22T09:55:38.479Z,46.78
2017-06-22T09:56:39.748Z,47.26
2017-06-22T09:57:41.005Z,47.11
2017-06-22T09:58:42.406Z,46.79
2017-06-22T09:59:43.671Z,46.54
2017-06-22T10:00:44.948Z,46.45
2017-06-22T10:01:46.208Z,46.02
2017-06-22T10:02:47.487Z,46.2
2017-06-22T10:03:48.770Z,46.48
2017-06-22T10:04:50.073Z,47.11
2017-06-22T10:05:51.332Z,47.49
2017-06-22T10:06:52.644Z,47.28
2017-06-22T10:07:53.909Z,46.53
2017-06-22T10:08:55.171Z,46.56
2017-06-22T10:09:56.436Z,46.66
2017-06-22T10:10:57.700Z,46.54
2017-06-22T10:11:59.022Z,46.53
2017-06-22T10:13:00.360Z,46.44
2017-06-22T10:14:01.605Z,46.58
2017-06-22T10:15:02.872Z,46.53
2017-06-22T10:16:04.142Z,46.54
2017-06-22T10:17:05.713Z,46.58
2017-06-22T10:18:06.918Z,46.68
2017-06-22T10:19:08.186Z,47.44
2017-06-22T10:20:09.449Z,47.91
2017-06-22T10:21:10.765Z,48.18
2017-06-22T10:22:12.106Z,48.24
2017-06-22T10:23:13.385Z,48.1
2017-06-22T10:24:14.644Z,48.1
2017-06-22T10:25:15.912Z,47.98
2017-06-22T10:26:17.178Z,47.68
2017-06-22T10:27:18.528Z,47.3
2017-06-22T10:28:19.818Z,47.07
2017-06-22T10:29:21.067Z,46.91
2017-06-22T10:30:22.347Z,46.91
2017-06-22T10:31:23.619Z,46.63
2017-06-22T10:32:24.896Z,46.15
2017-06-22T10:33:26.169Z,45.37
2017-06-22T10:34:27.452Z,44.8
2017-06-22T10:35:28.794Z,44.65
2017-06-22T10:36:30.042Z,44.18
2017-06-22T10:37:31.319Z,43.83
2017-06-22T10:38:32.607Z,43.33
2017-06-22T10:39:33.904Z,43.06
2017-06-22T10:40:35.215Z,42.62
2017-06-22T10:41:36.468Z,42.47
2017-06-22T10:42:37.729Z,42.1
2017-06-22T10:43:38.986Z,41.65
2017-06-22T10:44:40.298Z,41.22
2017-06-22T10:45:41.584Z,41.05
2017-06-22T10:46:42.836Z,40.8
2017-06-22T10:47:44.090Z,40.8
2017-06-22T10:48:45.348Z,40.8
2017-06-22T10:49:46.625Z,40.64
2017-06-22T10:50:47.931Z,40.79
2017-06-22T10:51:49.196Z,40.43
2017-06-22T10:52:50.466Z,40.18
2017-06-22T10:53:51.725Z,39.93
2017-06-22T10:54:52.975Z,39.49
2017-06-22T10:55:54.259Z,39.3
2017-06-22T10:56:55.514Z,39.15
2017-06-22T10:57:56.914Z,39.17
2017-06-22T10:58:58.183Z,38.99
2017-06-22T10:59:59.497Z,38.86
2017-06-22T11:01:00.758Z,38.8
2017-06-22T11:02:02.067Z,38.8
2017-06-22T11:03:03.322Z,38.7
2017-06-22T11:04:04.613Z,38.6
2017-06-22T11:05:05.869Z,38.71
2017-06-22T11:06:07.132Z,38.82
2017-06-22T11:07:08.387Z,38.85
2017-06-22T11:08:09.649Z,38.7
2017-06-22T11:09:10.945Z,38.75
2017-06-22T11:10:12.301Z,38.52
2017-06-22T11:11:13.669Z,38.51
2017-06-22T11:12:14.815Z,38.32
2017-06-22T11:13:16.077Z,38.14
2017-06-22T11:14:17.346Z,38.2
2017-06-22T11:15:18.593Z,38.17
2017-06-22T11:16:19.931Z,38.17
2017-06-22T11:17:21.199Z,38.14
2017-06-22T11:18:22.525Z,38.12
2017-06-22T11:19:23.773Z,38.22
2017-06-22T11:20:25.075Z,38.18
2017-06-22T11:21:26.382Z,38.14
2017-06-22T11:22:27.632Z,38.04
2017-06-22T11:23:28.907Z,38.05
2017-06-22T11:24:30.160Z,38.12
2017-06-22T11:25:31.430Z,38.03
2017-06-22T11:26:32.690Z,38.17
2017-06-22T11:27:34.177Z,38.05
2017-06-22T11:28:35.317Z,38.15
2017-06-22T11:29:36.637Z,38.17
2017-06-22T11:30:37.895Z,38.17
2017-06-22T11:31:39.168Z,38.01
2017-06-22T11:32:40.411Z,38.03
2017-06-22T11:33:41.778Z,38.08
2017-06-22T11:34:43.060Z,38.23
2017-06-22T11:35:44.308Z,38.23
2017-06-22T11:36:45.573Z,37.93
2017-06-22T11:37:46.926Z,37.99
2017-06-22T11:38:48.345Z,37.99
2017-06-22T11:39:49.490Z,37.78
2017-06-22T11:40:50.751Z,37.76
2017-06-22T11:41:52.022Z,37.8
2017-06-22T11:42:53.293Z,37.88
2017-06-22T11:43:54.588Z,37.76
2017-06-22T11:44:55.855Z,37.77
2017-06-22T11:45:57.214Z,37.64
2017-06-22T11:46:58.475Z,37.67
2017-06-22T11:47:59.750Z,37.62
2017-06-22T11:49:00.985Z,37.61
2017-06-22T11:50:02.243Z,37.56
2017-06-22T11:51:03.501Z,37.56
2017-06-22T11:52:04.759Z,37.5
2017-06-22T11:53:06.015Z,37.39
2017-06-22T11:54:07.284Z,37.5
2017-06-22T11:55:08.607Z,37.48
2017-06-22T11:56:09.864Z,37.61
2017-06-22T11:57:11.123Z,37.56
2017-06-22T11:58:12.402Z,37.68
2017-06-22T11:59:13.782Z,37.55
2017-06-22T12:00:15.020Z,37.55
2017-06-22T12:01:16.285Z,37.42
2017-06-22T12:02:17.536Z,37.29
2017-06-22T12:03:18.910Z,37.32
2017-06-22T12:04:20.241Z,37.31
2017-06-22T12:05:21.512Z,37.28
2017-06-22T12:06:22.811Z,37.28
2017-06-22T12:07:24.135Z,37.19
2017-06-22T12:08:25.405Z,37.1
2017-06-22T12:09:26.660Z,37.02
2017-06-22T12:10:27.913Z,37.1
2017-06-22T12:11:29.179Z,37.02
2017-06-22T12:12:30.442Z,36.86
2017-06-22T12:13:31.700Z,36.83
2017-06-22T12:14:32.965Z,36.75
2017-06-22T12:15:34.212Z,36.79
2017-06-22T12:16:35.467Z,36.76
2017-06-22T12:17:36.719Z,36.73
2017-06-22T12:18:37.965Z,36.75
2017-06-22T12:19:39.226Z,36.77
2017-06-22T12:20:40.563Z,36.68
2017-06-22T12:21:42.183Z,36.61
2017-06-22T12:22:43.341Z,36.48
2017-06-22T12:23:44.608Z,36.2
2017-06-22T12:24:45.869Z,36.15
2017-06-22T12:25:47.182Z,36.23
2017-06-22T12:26:48.533Z,36.03
2017-06-22T12:27:49.779Z,36
2017-06-22T12:28:51.070Z,36.04
2017-06-22T12:29:52.306Z,36.08
2017-06-22T12:30:53.579Z,36.06
2017-06-22T12:31:54.852Z,36.17
2017-06-22T12:32:56.243Z,36.21
2017-06-22T12:33:57.520Z,36.29
2017-06-22T12:34:58.811Z,36.43
2017-06-22T12:36:00.076Z,36.36
2017-06-22T12:37:01.341Z,36.2
2017-06-22T12:38:02.592Z,36.23
2017-06-22T12:39:03.860Z,36.31
2017-06-22T12:40:05.116Z,36.06
2017-06-22T12:41:06.397Z,36.01
2017-06-22T12:42:07.659Z,35.89
2017-06-22T12:43:08.926Z,35.89
2017-06-22T12:44:10.203Z,35.88
2017-06-22T12:45:11.471Z,35.89
2017-06-22T12:46:12.760Z,35.81
2017-06-22T12:47:14.014Z,35.82
2017-06-22T12:48:15.239Z,35.86
2017-06-22T12:49:16.580Z,35.81
2017-06-22T12:50:17.851Z,35.84
2017-06-22T12:51:19.122Z,35.84
2017-06-22T12:52:20.371Z,35.88
2017-06-22T12:53:21.628Z,35.91
2017-06-22T12:54:22.885Z,36
2017-06-22T12:55:24.186Z,36.01
2017-06-22T12:56:25.446Z,35.99
2017-06-22T12:57:26.694Z,35.97
2017-06-22T12:58:27.986Z,36.12
2017-06-22T12:59:29.234Z,36.17
2017-06-22T13:00:30.486Z,36.15
2017-06-22T13:01:31.740Z,36.03
2017-06-22T13:02:33.059Z,35.92
2017-06-22T13:03:34.340Z,35.91
2017-06-22T13:04:35.599Z,35.86
2017-06-22T13:05:36.954Z,35.93
2017-06-22T13:06:38.221Z,35.88
2017-06-22T13:07:39.492Z,35.91
2017-06-22T13:08:40.733Z,35.89
2017-06-22T13:09:42.027Z,35.73
2017-06-22T13:10:43.273Z,35.92
2017-06-22T13:11:44.548Z,35.85
2017-06-22T13:12:45.791Z,35.84